createdAt,value
2019-01-25T00:00:37.000Z,26.356
2019-01-25T00:10:38.000Z,26.113
2019-01-25T00:20:38.000Z,26.1
2019-01-25T00:30:37.000Z,26.228
2019-01-25T00:40:37.000Z,26.138
2019-01-25T00:50:37.000Z,26.049
2019-01-25T01:00:37.000Z,26.133
2019-01-25T01:10:37.000Z,26.054
2019-01-25T01:20:37.000Z,26.02
2019-01-25T01:30:37.000Z,26.105
2019-01-25T01:40:37.000Z,26.147
2019-01-25T01:50:37.000Z,26.145
2019-01-25T02:00:37.000Z,26.1
2019-01-25T02:10:37.000Z,26.086
2019-01-25T02:20:37.000Z,26.095
2019-01-25T02:30:37.000Z,26.125
2019-01-25T02:40:37.000Z,26.102
2019-01-25T02:50:37.000Z,26.199
2019-01-25T03:00:37.000Z,26.034
2019-01-25T03:10:37.000Z,26.184
2019-01-25T03:20:38.000Z,26.389
2019-01-25T03:30:40.000Z,26.051
2019-01-25T03:40:38.000Z,26.278
2019-01-25T03:50:38.000Z,26.229
2019-01-25T04:00:38.000Z,25.899
2019-01-25T04:10:38.000Z,25.599
2019-01-25T04:20:38.000Z,25.473
2019-01-25T04:30:38.000Z,25.561
2019-01-25T04:40:38.000Z,26.057
2019-01-25T04:50:38.000Z,25.754
2019-01-25T05:00:38.000Z,25.775
2019-01-25T05:10:38.000Z,25.993
2019-01-25T05:20:38.000Z,25.797
2019-01-25T05:30:38.000Z,25.832
2019-01-25T05:40:38.000Z,26.028
2019-01-25T05:50:38.000Z,26.202
2019-01-25T06:00:38.000Z,26.149
2019-01-25T06:10:38.000Z,26.03
2019-01-25T06:20:38.000Z,25.998
2019-01-25T06:30:38.000Z,26.226
2019-01-25T06:40:38.000Z,25.879
2019-01-25T06:50:38.000Z,26.087
2019-01-25T07:00:38.000Z,26.077
2019-01-25T07:10:38.000Z,25.916
2019-01-25T07:20:38.000Z,26.015
2019-01-25T07:30:38.000Z,25.961
2019-01-25T07:40:38.000Z,25.973
2019-01-25T07:50:38.000Z,26
2019-01-25T08:00:38.000Z,25.86
2019-01-25T08:10:38.000Z,25.827
2019-01-25T08:20:38.000Z,25.729
2019-01-25T08:30:38.000Z,25.609
2019-01-25T08:40:38.000Z,25.12
2019-01-25T08:50:38.000Z,25.468
2019-01-25T09:00:38.000Z,25.534
2019-01-25T09:10:38.000Z,25.698
2019-01-25T09:20:38.000Z,25.197
2019-01-25T09:30:38.000Z,25.337
2019-01-25T09:40:38.000Z,25.524
2019-01-25T09:50:38.000Z,25.012
2019-01-25T10:00:38.000Z,24.879
2019-01-25T10:10:38.000Z,24.817
2019-01-25T10:20:39.000Z,24.817
2019-01-25T10:30:38.000Z,24.948
2019-01-25T10:40:38.000Z,25.013
2019-01-25T10:50:39.000Z,25.364
2019-01-25T11:00:38.000Z,25.441
2019-01-25T11:10:38.000Z,25.411
2019-01-25T11:20:38.000Z,25.585
2019-01-25T11:30:39.000Z,25.032
2019-01-25T11:40:39.000Z,25.599
2019-01-25T11:50:39.000Z,24.597
2019-01-25T12:00:39.000Z,25.244
2019-01-25T12:10:39.000Z,24.006
2019-01-25T12:20:39.000Z,24.525
2019-01-25T12:30:39.000Z,24.952
2019-01-25T12:40:39.000Z,24.463
2019-01-25T13:00:39.000Z,23.855
2019-01-25T13:10:39.000Z,24.194
2019-01-25T13:20:39.000Z,23.944
2019-01-25T13:30:39.000Z,23.912
2019-01-25T13:40:39.000Z,23.803
2019-01-25T13:50:39.000Z,23.705
2019-01-25T14:00:39.000Z,23.651
2019-01-25T14:10:39.000Z,23.495
2019-01-25T14:20:39.000Z,24.278
2019-01-25T14:30:39.000Z,25.345
2019-01-25T14:40:39.000Z,25.728
2019-01-25T14:50:39.000Z,26.473
2019-01-25T15:00:39.000Z,26.724
2019-01-25T15:10:41.000Z,26.875
2019-01-25T15:20:39.000Z,27.516
2019-01-25T15:30:39.000Z,27.578
2019-01-25T15:40:39.000Z,27.773
2019-01-25T15:50:41.000Z,28.17
2019-01-25T16:00:39.000Z,28.152
2019-01-25T16:10:39.000Z,28.222
2019-01-25T16:20:39.000Z,28.477
2019-01-25T16:30:39.000Z,28.514
2019-01-25T16:40:39.000Z,28.538
2019-01-25T16:50:39.000Z,28.661
2019-01-25T17:00:39.000Z,28.871
2019-01-25T17:10:39.000Z,29.047
2019-01-25T17:20:39.000Z,29.104
2019-01-25T17:30:39.000Z,29.141
2019-01-25T17:40:39.000Z,29.217
2019-01-25T17:50:39.000Z,29.285
2019-01-25T18:00:42.000Z,29.559
2019-01-25T18:10:39.000Z,29.626
2019-01-25T18:20:39.000Z,29.814
2019-01-25T18:30:39.000Z,30.134
2019-01-25T18:40:40.000Z,30.14
2019-01-25T18:50:40.000Z,30.31
2019-01-25T19:00:39.000Z,30.546
2019-01-25T19:10:39.000Z,30.796
2019-01-25T19:20:39.000Z,32.275
2019-01-25T19:30:40.000Z,32.299
2019-01-25T19:50:40.000Z,32.489
2019-01-25T20:00:40.000Z,32.414
2019-01-25T20:10:40.000Z,32.239
2019-01-25T20:20:40.000Z,31.672
2019-01-25T20:30:40.000Z,31.944
2019-01-25T20:40:40.000Z,31.339
2019-01-25T20:50:41.000Z,32.58
2019-01-25T21:00:40.000Z,32.264
2019-01-25T21:10:40.000Z,32.001
2019-01-25T21:20:41.000Z,32.11
2019-01-25T21:30:40.000Z,31.858
2019-01-25T21:40:40.000Z,31.086
2019-01-25T21:50:40.000Z,31.041
2019-01-25T22:00:40.000Z,31.041
2019-01-25T22:10:40.000Z,31.551
2019-01-25T22:20:40.000Z,31.533
2019-01-25T22:30:40.000Z,31.122
2019-01-25T22:40:43.000Z,31.242
2019-01-25T22:50:40.000Z,30.986
2019-01-25T23:00:44.000Z,30.405
2019-01-25T23:10:40.000Z,30.652
2019-01-25T23:20:40.000Z,30.462
2019-01-25T23:30:40.000Z,30.306
2019-01-25T23:40:40.000Z,30.411
2019-01-25T23:50:40.000Z,30.407
